createdAt,value
2022-11-02T00:00:33.084Z,13.50
2022-11-02T00:03:00.074Z,13.50
2022-11-02T00:05:27.581Z,13.40
2022-11-02T00:07:55.352Z,13.40
2022-11-02T00:10:24.172Z,13.30
2022-11-02T00:12:51.619Z,13.30
2022-11-02T00:15:18.680Z,13.20
2022-11-02T00:17:53.416Z,13.20
2022-11-02T00:20:21.269Z,13.20
2022-11-02T00:22:53.581Z,13.30
2022-11-02T00:25:23.638Z,13.40
2022-11-02T00:27:50.475Z,13.40
2022-11-02T00:30:18.028Z,13.30
2022-11-02T00:32:45.578Z,13.40
2022-11-02T00:35:12.721Z,13.50
2022-11-02T00:37:39.598Z,13.40
2022-11-02T00:40:07.125Z,13.40
2022-11-02T00:42:33.946Z,13.40
2022-11-02T00:45:01.115Z,13.40
2022-11-02T00:47:27.830Z,13.30
2022-11-02T00:49:54.660Z,13.40
2022-11-02T00:52:21.527Z,13.40
2022-11-02T00:54:51.289Z,13.40
2022-11-02T00:57:18.465Z,13.30
2022-11-02T00:59:45.626Z,13.40
2022-11-02T01:02:12.587Z,13.30
2022-11-02T01:04:39.510Z,13.60
2022-11-02T01:07:06.585Z,13.80
2022-11-02T01:09:34.486Z,13.90
2022-11-02T01:12:01.311Z,13.60
2022-11-02T01:14:28.309Z,13.30
2022-11-02T01:16:57.673Z,13.20
2022-11-02T01:19:25.562Z,13.10
2022-11-02T01:21:52.321Z,13.00
2022-11-02T01:24:19.771Z,12.90
2022-11-02T01:26:51.697Z,13.00
2022-11-02T01:29:19.322Z,13.00
2022-11-02T01:31:46.535Z,12.80
2022-11-02T01:34:13.322Z,12.90
2022-11-02T01:36:40.319Z,12.80
2022-11-02T01:39:07.346Z,12.70
2022-11-02T01:41:34.145Z,12.80
2022-11-02T01:44:05.131Z,12.60
2022-11-02T01:46:46.697Z,12.50
2022-11-02T01:49:20.074Z,12.50
2022-11-02T01:52:00.239Z,12.60
2022-11-02T01:54:37.957Z,12.40
2022-11-02T01:57:10.646Z,12.30
2022-11-02T01:59:56.318Z,12.10
2022-11-02T02:02:27.463Z,12.10
2022-11-02T02:05:07.793Z,11.90
2022-11-02T02:07:38.615Z,12.10
2022-11-02T02:10:07.955Z,12.10
2022-11-02T02:12:39.506Z,12.00
2022-11-02T02:15:07.327Z,12.00
2022-11-02T02:17:50.374Z,12.20
2022-11-02T02:20:54.781Z,11.90
2022-11-02T02:23:53.994Z,11.80
2022-11-02T02:26:32.344Z,11.80
2022-11-02T02:29:24.001Z,11.80
2022-11-02T02:32:31.608Z,11.90
2022-11-02T02:35:41.758Z,12.10
2022-11-02T02:38:42.613Z,12.00
2022-11-02T02:41:25.239Z,12.10
2022-11-02T02:43:58.562Z,12.10
2022-11-02T02:46:46.547Z,12.10
2022-11-02T02:49:20.045Z,12.20
2022-11-02T02:51:47.620Z,12.20
2022-11-02T02:54:25.724Z,12.20
2022-11-02T02:56:57.999Z,12.30
2022-11-02T02:59:45.521Z,12.30
2022-11-02T03:02:33.654Z,12.40
2022-11-02T03:05:00.507Z,12.30
2022-11-02T03:07:33.974Z,12.30
2022-11-02T03:10:30.718Z,12.30
2022-11-02T03:13:32.185Z,12.50
2022-11-02T03:16:11.672Z,12.60
2022-11-02T03:19:02.862Z,12.60
2022-11-02T03:21:55.051Z,12.60
2022-11-02T03:24:56.299Z,12.70
2022-11-02T03:27:32.562Z,12.70
2022-11-02T03:30:07.959Z,12.60
2022-11-02T03:33:01.573Z,12.60
2022-11-02T03:35:42.461Z,12.80
2022-11-02T03:38:25.873Z,12.50
2022-11-02T03:40:56.937Z,12.50
2022-11-02T03:43:25.665Z,12.60
2022-11-02T03:46:00.633Z,12.60
2022-11-02T03:48:42.649Z,12.60
2022-11-02T03:51:16.022Z,12.70
2022-11-02T03:53:47.776Z,12.60
2022-11-02T03:56:49.891Z,12.90
2022-11-02T03:59:17.677Z,13.10
2022-11-02T04:01:50.560Z,12.90
2022-11-02T04:04:19.200Z,13.10
2022-11-02T04:06:48.890Z,12.80
2022-11-02T04:09:17.383Z,12.90
2022-11-02T04:12:02.894Z,12.80
2022-11-02T04:14:39.898Z,12.80
2022-11-02T04:17:35.036Z,12.90
2022-11-02T04:20:06.355Z,13.00
2022-11-02T04:22:51.471Z,13.20
2022-11-02T04:25:19.898Z,13.00
2022-11-02T04:28:09.004Z,13.20
2022-11-02T04:30:41.146Z,13.20
2022-11-02T04:33:26.466Z,13.20
2022-11-02T04:36:01.605Z,13.30
2022-11-02T04:38:42.625Z,13.20
2022-11-02T04:41:37.377Z,13.10
2022-11-02T04:44:10.129Z,13.10
2022-11-02T04:46:39.383Z,13.10
2022-11-02T04:49:09.780Z,13.30
2022-11-02T04:51:40.221Z,13.30
2022-11-02T04:54:08.535Z,13.10
2022-11-02T04:56:35.503Z,13.10
2022-11-02T04:59:02.318Z,13.10
2022-11-02T05:01:32.151Z,13.10
2022-11-02T05:04:00.774Z,13.10
2022-11-02T05:06:30.333Z,13.30
2022-11-02T05:08:57.723Z,13.10
2022-11-02T05:11:25.425Z,12.90
2022-11-02T05:13:53.090Z,13.00
2022-11-02T05:16:19.934Z,12.80
2022-11-02T05:18:49.169Z,13.00
2022-11-02T05:21:17.480Z,12.90
2022-11-02T05:23:44.473Z,13.10
2022-11-02T05:26:12.698Z,13.10
2022-11-02T05:28:43.133Z,12.90
2022-11-02T05:31:09.930Z,12.80
2022-11-02T05:33:37.008Z,12.70
2022-11-02T05:36:10.981Z,12.70
2022-11-02T05:41:13.121Z,13.00
2022-11-02T05:43:41.096Z,12.90
2022-11-02T05:46:09.916Z,12.90
2022-11-02T05:48:36.697Z,12.80
2022-11-02T05:51:04.773Z,12.90
2022-11-02T05:53:33.734Z,12.90
2022-11-02T05:56:02.113Z,13.20
2022-11-02T05:58:29.547Z,13.00
2022-11-02T06:01:01.028Z,13.10
2022-11-02T06:03:28.475Z,13.00
2022-11-02T06:06:04.148Z,12.90
2022-11-02T06:08:36.234Z,12.80
2022-11-02T06:11:12.434Z,12.60
2022-11-02T06:13:41.480Z,12.60
2022-11-02T06:16:10.888Z,12.50
2022-11-02T06:18:38.989Z,12.30
2022-11-02T06:21:06.425Z,12.30
2022-11-02T06:23:33.667Z,12.40
2022-11-02T06:26:01.081Z,12.30
2022-11-02T06:28:29.127Z,12.50
2022-11-02T06:30:57.422Z,12.40
2022-11-02T06:33:24.386Z,12.30
2022-11-02T06:35:54.360Z,12.20
2022-11-02T06:38:21.896Z,12.30
2022-11-02T06:41:06.481Z,12.20
2022-11-02T06:43:36.634Z,12.20
2022-11-02T06:46:03.477Z,12.40
2022-11-02T06:48:34.918Z,12.70
2022-11-02T06:51:04.365Z,12.50
2022-11-02T06:53:31.820Z,12.40
2022-11-02T06:56:00.494Z,12.50
2022-11-02T06:58:28.022Z,12.40
2022-11-02T07:01:01.693Z,12.50
2022-11-02T07:03:29.742Z,12.50
2022-11-02T07:05:56.799Z,12.60
2022-11-02T07:08:23.894Z,12.50
2022-11-02T07:10:51.009Z,12.40
2022-11-02T07:13:18.545Z,12.40
2022-11-02T07:15:45.386Z,12.40
2022-11-02T07:18:13.590Z,12.70
2022-11-02T07:20:40.444Z,12.80
2022-11-02T07:23:07.640Z,12.70
2022-11-02T07:25:35.420Z,12.50
2022-11-02T07:28:03.136Z,12.30
2022-11-02T07:30:32.567Z,12.30
2022-11-02T07:32:59.777Z,12.50
2022-11-02T07:35:27.033Z,12.40
2022-11-02T07:38:06.325Z,12.30
2022-11-02T07:40:35.851Z,12.30
2022-11-02T07:43:03.839Z,12.30
2022-11-02T07:45:45.760Z,12.30
2022-11-02T07:48:12.548Z,12.40
2022-11-02T07:50:39.366Z,12.40
2022-11-02T07:53:06.560Z,12.40
2022-11-02T07:55:33.776Z,12.40
2022-11-02T07:58:10.088Z,12.50
2022-11-02T08:00:39.381Z,12.50
2022-11-02T08:03:10.159Z,12.60
2022-11-02T08:05:40.905Z,12.60
2022-11-02T08:08:15.635Z,12.50
2022-11-02T08:10:44.438Z,12.50
2022-11-02T08:13:17.284Z,12.50
2022-11-02T08:15:44.523Z,12.60
2022-11-02T08:18:29.170Z,12.50
2022-11-02T08:20:57.944Z,12.60
2022-11-02T08:23:26.422Z,12.60
2022-11-02T08:25:55.267Z,12.60
2022-11-02T08:28:27.136Z,12.60
2022-11-02T08:30:54.574Z,12.70
2022-11-02T08:33:21.620Z,12.70
2022-11-02T08:35:48.854Z,12.70
2022-11-02T08:38:17.110Z,12.80
2022-11-02T08:40:44.849Z,12.80
2022-11-02T08:43:14.596Z,12.80
2022-11-02T08:48:31.813Z,13.00
2022-11-02T08:50:58.843Z,13.10
2022-11-02T08:53:25.648Z,13.10
2022-11-02T08:55:52.441Z,13.20
2022-11-02T08:58:19.274Z,13.30
2022-11-02T09:00:46.090Z,13.50
2022-11-02T09:03:15.550Z,13.50
2022-11-02T09:05:45.161Z,13.40
2022-11-02T09:08:18.747Z,13.60
2022-11-02T09:10:51.235Z,13.70
2022-11-02T09:13:25.264Z,13.70
2022-11-02T09:15:56.005Z,13.90
2022-11-02T09:18:23.898Z,14.10
2022-11-02T09:20:51.432Z,14.10
2022-11-02T09:23:20.694Z,14.20
2022-11-02T09:25:48.690Z,14.20
2022-11-02T09:28:15.676Z,14.30
2022-11-02T09:30:43.209Z,14.20
2022-11-02T09:33:10.795Z,14.20
2022-11-02T09:35:41.576Z,14.30
2022-11-02T09:38:08.458Z,14.30
2022-11-02T09:40:43.078Z,14.40
2022-11-02T09:43:32.843Z,14.40
2022-11-02T09:46:12.422Z,14.40
2022-11-02T09:49:20.936Z,14.60
2022-11-02T09:51:52.944Z,14.60
2022-11-02T09:54:25.326Z,14.80
2022-11-02T09:56:57.844Z,14.80
2022-11-02T09:59:27.071Z,14.80
2022-11-02T10:02:25.438Z,14.90
2022-11-02T10:05:29.231Z,15.00
2022-11-02T10:07:58.570Z,15.00
2022-11-02T10:10:39.999Z,14.80
2022-11-02T10:13:40.088Z,14.90
2022-11-02T10:16:25.790Z,15.00
2022-11-02T10:18:54.589Z,14.90
2022-11-02T10:21:30.007Z,15.00
2022-11-02T10:24:03.607Z,15.10
2022-11-02T10:26:35.907Z,15.20
2022-11-02T10:29:11.883Z,15.10
2022-11-02T10:31:38.635Z,15.00
2022-11-02T10:34:28.438Z,14.90
2022-11-02T10:37:19.248Z,14.90
2022-11-02T10:40:42.196Z,15.10
2022-11-02T10:43:52.187Z,15.20
2022-11-02T10:46:51.276Z,15.50
2022-11-02T10:49:57.646Z,15.60
2022-11-02T10:52:25.011Z,15.50
2022-11-02T10:54:51.888Z,15.50
2022-11-02T10:57:25.829Z,15.60
2022-11-02T11:00:35.985Z,15.50
2022-11-02T11:03:10.013Z,15.50
2022-11-02T11:06:00.534Z,15.40
2022-11-02T11:08:44.275Z,15.50
2022-11-02T11:11:20.582Z,15.40
2022-11-02T11:19:56.554Z,15.50
2022-11-02T11:22:39.792Z,15.50
2022-11-02T11:25:12.670Z,15.60
2022-11-02T11:27:51.449Z,15.60
2022-11-02T11:33:25.433Z,15.50
2022-11-02T11:35:52.779Z,15.60
2022-11-02T11:38:24.192Z,15.60
2022-11-02T11:40:57.435Z,15.50
2022-11-02T11:43:30.212Z,15.30
2022-11-02T11:46:07.938Z,15.40
2022-11-02T11:48:53.622Z,15.30
2022-11-02T11:51:38.477Z,15.30
2022-11-02T11:54:32.477Z,15.60
2022-11-02T11:57:25.968Z,15.50
2022-11-02T11:59:52.955Z,15.40
2022-11-02T12:02:27.795Z,15.50
2022-11-02T12:05:20.674Z,15.30
2022-11-02T12:08:15.429Z,15.40
2022-11-02T12:11:22.534Z,15.40
2022-11-02T12:14:32.522Z,15.50
2022-11-02T12:17:28.186Z,15.40
2022-11-02T12:20:36.507Z,15.30
2022-11-02T12:23:48.389Z,15.50
2022-11-02T12:26:26.038Z,15.40
2022-11-02T12:29:55.335Z,15.40
2022-11-02T12:32:55.999Z,15.60
2022-11-02T12:35:45.816Z,15.70
2022-11-02T12:38:53.417Z,15.70
2022-11-02T12:41:42.661Z,15.70
2022-11-02T12:44:36.298Z,15.70
2022-11-02T12:47:18.819Z,15.40
2022-11-02T12:50:32.463Z,15.40
2022-11-02T12:53:26.258Z,15.60
2022-11-02T12:55:57.745Z,15.40
2022-11-02T12:58:30.006Z,15.40
2022-11-02T13:01:10.754Z,15.40
2022-11-02T13:03:51.338Z,15.60
2022-11-02T13:06:43.430Z,15.60
2022-11-02T13:09:33.675Z,15.60
2022-11-02T13:12:14.808Z,15.50
2022-11-02T13:14:46.335Z,15.50
2022-11-02T13:17:34.099Z,15.60
2022-11-02T13:20:13.066Z,15.50
2022-11-02T13:22:47.698Z,15.60
2022-11-02T13:25:41.632Z,15.60
2022-11-02T13:28:53.184Z,15.50
2022-11-02T13:31:37.135Z,15.30
2022-11-02T13:34:12.735Z,15.30
2022-11-02T13:36:40.174Z,15.20
2022-11-02T13:39:22.421Z,15.20
2022-11-02T13:42:24.062Z,15.30
2022-11-02T13:45:35.270Z,15.30
2022-11-02T13:48:35.313Z,15.10
2022-11-02T13:51:18.318Z,15.20
2022-11-02T13:54:09.015Z,15.10
2022-11-02T13:56:37.636Z,15.10
2022-11-02T13:59:09.251Z,15.20
2022-11-02T14:01:41.261Z,15.20
2022-11-02T14:04:11.317Z,15.10
2022-11-02T14:07:00.434Z,15.10
2022-11-02T14:09:42.191Z,15.10
2022-11-02T14:12:20.789Z,15.10
2022-11-02T14:15:13.584Z,15.10
2022-11-02T14:18:02.269Z,15.10
2022-11-02T14:20:35.699Z,15.00
2022-11-02T14:23:11.589Z,15.10
2022-11-02T14:25:56.573Z,15.10
2022-11-02T14:28:23.645Z,15.10
2022-11-02T14:31:16.313Z,15.10
2022-11-02T14:34:09.683Z,15.00
2022-11-02T14:37:19.974Z,15.10
2022-11-02T14:40:10.960Z,15.00
2022-11-02T14:43:07.226Z,15.00
2022-11-02T14:45:55.211Z,15.00
2022-11-02T14:48:23.775Z,15.10
2022-11-02T14:51:06.744Z,15.10
2022-11-02T14:53:37.170Z,15.20
2022-11-02T14:56:04.598Z,15.10
2022-11-02T14:58:48.003Z,15.10
2022-11-02T15:01:16.737Z,15.00
2022-11-02T15:03:45.459Z,15.00
2022-11-02T15:06:14.777Z,14.90
2022-11-02T15:08:58.083Z,14.90
2022-11-02T15:11:50.841Z,14.80
2022-11-02T15:14:35.879Z,14.80
2022-11-02T15:17:24.536Z,14.80
2022-11-02T15:20:13.056Z,14.70
2022-11-02T15:22:54.714Z,14.90
2022-11-02T15:25:31.230Z,14.80
2022-11-02T15:28:13.211Z,14.70
2022-11-02T15:30:49.518Z,14.50
2022-11-02T15:33:30.148Z,14.50
2022-11-02T15:36:00.896Z,14.40
2022-11-02T15:38:33.936Z,14.40
2022-11-02T15:41:43.370Z,14.40
2022-11-02T15:44:55.830Z,14.30
2022-11-02T15:47:37.171Z,14.20
2022-11-02T15:50:42.408Z,14.20
2022-11-02T15:53:44.026Z,14.10
2022-11-02T15:56:32.106Z,14.10
2022-11-02T15:59:59.389Z,14.10
2022-11-02T16:02:37.884Z,14.00
2022-11-02T16:05:06.138Z,14.00
2022-11-02T16:07:50.341Z,13.90
2022-11-02T16:10:26.329Z,13.90
2022-11-02T16:13:16.970Z,13.80
2022-11-02T16:15:46.280Z,13.80
2022-11-02T16:18:24.082Z,13.80
2022-11-02T16:20:53.752Z,13.70
2022-11-02T16:23:26.650Z,13.70
2022-11-02T16:25:57.227Z,13.70
2022-11-02T16:28:35.958Z,13.60
2022-11-02T16:31:19.744Z,13.60
2022-11-02T16:33:56.236Z,13.60
2022-11-02T16:36:27.247Z,13.60
2022-11-02T16:39:14.157Z,13.50
2022-11-02T16:41:45.308Z,13.50
2022-11-02T16:44:25.639Z,13.50
2022-11-02T16:47:16.894Z,13.50
2022-11-02T16:49:49.766Z,13.50
2022-11-02T16:52:31.290Z,13.40
2022-11-02T16:54:58.933Z,13.40
2022-11-02T16:57:31.325Z,13.40
2022-11-02T17:00:09.645Z,13.40
2022-11-02T17:02:42.481Z,13.40
2022-11-02T17:05:26.318Z,13.40
2022-11-02T17:08:09.426Z,13.30
2022-11-02T17:10:38.849Z,13.30
2022-11-02T17:13:21.356Z,13.20
2022-11-02T17:15:51.810Z,13.20
2022-11-02T17:18:21.288Z,13.10
2022-11-02T17:21:08.829Z,13.20
2022-11-02T17:23:36.931Z,13.20
2022-11-02T17:26:22.421Z,13.10
2022-11-02T17:28:57.205Z,13.40
2022-11-02T17:31:35.579Z,13.20
2022-11-02T17:34:19.159Z,13.10
2022-11-02T17:36:51.933Z,13.10
2022-11-02T17:39:20.641Z,13.10
2022-11-02T17:42:14.932Z,13.10
2022-11-02T17:44:42.161Z,13.10
2022-11-02T17:47:13.041Z,13.10
2022-11-02T17:49:39.908Z,13.00
2022-11-02T17:52:07.547Z,13.10
2022-11-02T17:54:34.339Z,13.10
2022-11-02T17:57:05.055Z,13.10
2022-11-02T17:59:31.903Z,13.10
2022-11-02T18:01:58.802Z,13.10
2022-11-02T18:04:25.641Z,13.10
2022-11-02T18:06:52.368Z,13.10
2022-11-02T18:09:19.669Z,13.10
2022-11-02T18:11:47.179Z,13.10
2022-11-02T18:14:16.675Z,13.10
2022-11-02T18:16:44.643Z,13.10
2022-11-02T18:19:12.197Z,13.10
2022-11-02T18:21:39.081Z,13.10
2022-11-02T18:24:10.828Z,13.10
2022-11-02T18:26:38.573Z,13.10
2022-11-02T18:29:06.130Z,13.10
2022-11-02T18:31:35.095Z,13.10
2022-11-02T18:34:01.850Z,13.10
2022-11-02T18:36:28.596Z,13.10
2022-11-02T18:38:55.345Z,13.10
2022-11-02T18:41:29.443Z,13.10
2022-11-02T18:44:08.897Z,13.10
2022-11-02T18:46:37.527Z,13.10
2022-11-02T18:49:04.314Z,13.10
2022-11-02T18:51:31.444Z,13.10
2022-11-02T18:54:02.013Z,13.10
2022-11-02T18:56:30.219Z,13.10
2022-11-02T18:58:57.871Z,13.10
2022-11-02T19:01:26.341Z,13.00
2022-11-02T19:03:56.812Z,13.00
2022-11-02T19:06:43.505Z,13.00
2022-11-02T19:09:18.806Z,13.00
2022-11-02T19:11:54.156Z,13.00
2022-11-02T19:14:23.596Z,13.00
2022-11-02T19:16:50.431Z,13.00
2022-11-02T19:19:17.458Z,13.00
2022-11-02T19:21:44.306Z,13.00
2022-11-02T19:24:11.467Z,13.00
2022-11-02T19:26:38.923Z,13.00
2022-11-02T19:29:06.834Z,12.90
2022-11-02T19:31:35.441Z,12.90
2022-11-02T19:34:03.035Z,12.90
2022-11-02T19:36:31.211Z,12.90
2022-11-02T19:39:00.011Z,12.90
2022-11-02T19:41:26.856Z,12.90
2022-11-02T19:43:53.709Z,12.90
2022-11-02T19:46:22.502Z,12.90
2022-11-02T19:48:50.232Z,12.90
2022-11-02T19:51:20.539Z,12.90
2022-11-02T19:53:53.556Z,12.90
2022-11-02T19:56:22.162Z,12.90
2022-11-02T19:58:51.951Z,12.90
2022-11-02T20:01:23.531Z,12.90
2022-11-02T20:03:50.750Z,12.90
2022-11-02T20:06:35.148Z,12.90
2022-11-02T20:09:04.351Z,12.80
2022-11-02T20:11:32.210Z,12.80
2022-11-02T20:14:01.563Z,12.90
2022-11-02T20:16:28.985Z,12.80
2022-11-02T20:18:56.419Z,12.80
2022-11-02T20:21:34.508Z,12.80
2022-11-02T20:24:02.967Z,12.80
2022-11-02T20:26:33.665Z,12.80
2022-11-02T20:29:04.066Z,12.90
2022-11-02T20:31:39.540Z,12.90
2022-11-02T20:34:08.499Z,12.90
2022-11-02T20:36:36.146Z,12.80
2022-11-02T20:39:05.406Z,12.80
2022-11-02T20:41:32.586Z,12.90
2022-11-02T20:43:59.579Z,12.90
2022-11-02T20:46:40.040Z,12.80
2022-11-02T20:49:20.985Z,12.80
2022-11-02T20:51:50.892Z,12.90
2022-11-02T20:54:19.221Z,12.90
2022-11-02T20:56:46.362Z,12.80
2022-11-02T20:59:13.292Z,12.90
2022-11-02T21:01:40.661Z,12.80
2022-11-02T21:04:07.754Z,12.80
2022-11-02T21:06:34.657Z,12.80
2022-11-02T21:09:07.649Z,12.80
2022-11-02T21:11:56.082Z,12.80
2022-11-02T21:14:23.466Z,12.80
2022-11-02T21:16:50.204Z,12.80
2022-11-02T21:19:16.933Z,12.80
2022-11-02T21:21:43.794Z,12.80
2022-11-02T21:24:10.718Z,12.80
2022-11-02T21:26:37.487Z,12.90
2022-11-02T21:29:04.317Z,12.80
2022-11-02T21:31:31.066Z,12.80
2022-11-02T21:33:57.824Z,12.80
2022-11-02T21:36:24.674Z,12.80
2022-11-02T21:38:51.490Z,12.80
2022-11-02T21:41:21.914Z,12.80
2022-11-02T21:43:51.800Z,12.80
2022-11-02T21:46:19.692Z,12.90
2022-11-02T21:48:46.616Z,12.80
2022-11-02T21:51:19.250Z,12.80
2022-11-02T21:53:47.871Z,12.80
2022-11-02T21:56:21.657Z,12.80
2022-11-02T21:58:49.128Z,12.80
2022-11-02T22:01:40.354Z,12.90
2022-11-02T22:04:08.313Z,12.90
2022-11-02T22:06:37.501Z,12.80
2022-11-02T22:09:07.321Z,12.80
2022-11-02T22:11:34.619Z,12.80
2022-11-02T22:14:02.570Z,12.80
2022-11-02T22:16:34.842Z,12.80
2022-11-02T22:19:10.938Z,12.80
2022-11-02T22:21:44.245Z,12.80
2022-11-02T22:24:12.130Z,12.80
2022-11-02T22:26:40.333Z,12.80
2022-11-02T22:29:08.181Z,12.80
2022-11-02T22:31:38.939Z,12.80
2022-11-02T22:34:10.438Z,12.80
2022-11-02T22:36:40.202Z,12.80
2022-11-02T22:39:09.402Z,12.90
2022-11-02T22:41:41.519Z,12.80
2022-11-02T22:44:13.972Z,12.70
2022-11-02T22:46:47.292Z,12.70
2022-11-02T22:49:16.026Z,12.80
2022-11-02T22:51:46.600Z,12.80
2022-11-02T22:54:19.393Z,12.70
2022-11-02T22:56:48.667Z,12.70
2022-11-02T22:59:16.269Z,12.70
2022-11-02T23:01:43.735Z,12.70
2022-11-02T23:04:12.308Z,12.70
2022-11-02T23:06:39.948Z,12.70
2022-11-02T23:09:07.056Z,12.70
2022-11-02T23:11:36.763Z,12.70
2022-11-02T23:14:09.750Z,12.60
2022-11-02T23:16:46.886Z,12.70
2022-11-02T23:19:27.880Z,12.60
2022-11-02T23:22:25.601Z,12.60
2022-11-02T23:25:17.217Z,12.60
2022-11-02T23:28:13.654Z,12.60
2022-11-02T23:30:59.942Z,12.60
2022-11-02T23:33:33.021Z,12.50
2022-11-02T23:36:13.788Z,12.50
2022-11-02T23:39:04.628Z,12.50
2022-11-02T23:41:34.724Z,12.60
2022-11-02T23:44:14.523Z,12.50
2022-11-02T23:46:48.439Z,12.50
2022-11-02T23:49:18.273Z,12.50
2022-11-02T23:52:03.741Z,12.50
2022-11-02T23:54:49.107Z,12.50
2022-11-02T23:57:16.248Z,12.40
2022-11-02T23:59:42.993Z,12.40
